Time,TemperatureF,DewpointF,PressureIn,WindDirection,WindDirectionDegrees,WindSpeedMPH,WindSpeedGustMPH,Humidity,HourlyPrecipIn,Conditions,Clouds,dailyrainin,SoftwareType,DateUTC
2013-03-12 00:00:00,68.0,61.2,17.72,SSE,166,0.0,0.0,79,0.00,,,0.00,VWS V14.01,2013-03-12 04:00:00,
2013-03-12 00:02:00,68.0,61.2,17.72,South,170,0.0,4.0,79,0.00,,,0.00,VWS V14.01,2013-03-12 04:02:00,
2013-03-12 00:04:00,68.0,61.2,17.72,South,172,0.0,0.0,79,0.00,,,0.00,VWS V14.01,2013-03-12 04:04:00,
2013-03-12 00:10:00,67.8,61.4,17.72,SE,142,0.0,0.0,80,0.00,,,0.00,VWS V14.01,2013-03-12 04:10:00,
2013-03-12 00:12:00,67.8,61.4,17.72,SE,125,0.0,0.0,80,0.00,,,0.00,VWS V14.01,2013-03-12 04:12:00,
2013-03-12 00:18:00,67.8,61.4,17.72,SE,130,2.2,4.0,80,0.00,,,0.00,VWS V14.01,2013-03-12 04:18:00,
2013-03-12 00:23:00,67.8,61.4,17.72,SSE,159,3.6,3.6,80,0.00,,,0.00,VWS V14.01,2013-03-12 04:23:00,
2013-03-12 00:28:00,67.6,61.3,17.72,South,185,5.4,5.4,80,0.00,,,0.00,VWS V14.01,2013-03-12 04:28:00,
2013-03-12 00:34:00,67.6,61.3,17.72,ESE,122,3.6,3.6,80,0.00,,,0.00,VWS V14.01,2013-03-12 04:34:00,
2013-03-12 00:39:00,67.6,61.6,17.72,SW,233,0.0,3.6,81,0.00,,,0.00,VWS V14.01,2013-03-12 04:39:00,
2013-03-12 00:44:00,67.6,61.6,17.72,SE,135,0.0,0.0,81,0.00,,,0.00,VWS V14.01,2013-03-12 04:44:00,
2013-03-12 00:49:00,67.6,61.6,17.72,ESE,114,2.2,4.0,81,0.00,,,0.00,VWS V14.01,2013-03-12 04:49:00,
2013-03-12 00:55:00,67.5,61.4,17.72,ESE,116,4.0,4.0,81,0.00,,,0.00,VWS V14.01,2013-03-12 04:55:00,
2013-03-12 01:00:00,67.5,61.4,17.72,ESE,115,2.7,5.4,81,0.00,,,0.00,VWS V14.01,2013-03-12 05:00:00,
2013-03-12 01:06:00,67.5,61.4,17.72,SSE,166,4.0,4.0,81,0.00,,,0.00,VWS V14.01,2013-03-12 05:06:00,
2013-03-12 01:11:00,67.5,61.4,17.72,ESE,116,2.7,3.6,81,0.00,,,0.00,VWS V14.01,2013-03-12 05:11:00,
2013-03-12 01:17:00,67.3,61.3,17.72,ESE,110,3.6,5.4,81,0.00,,,0.00,VWS V14.01,2013-03-12 05:17:00,
2013-03-12 01:22:00,67.3,61.3,17.72,SE,135,4.9,4.9,81,0.00,,,0.00,VWS V14.01,2013-03-12 05:22:00,
2013-03-12 01:27:00,67.3,61.6,17.72,SSE,151,4.0,4.0,82,0.00,,,0.00,VWS V14.01,2013-03-12 05:27:00,
2013-03-12 01:32:00,67.3,61.6,17.72,ESE,115,2.2,6.3,82,0.00,,,0.00,VWS V14.01,2013-03-12 05:32:00,
2013-03-12 01:38:00,67.3,61.6,17.72,East,79,3.1,8.7,82,0.00,,,0.00,VWS V14.01,2013-03-12 05:38:00,
2013-03-12 01:44:00,67.3,61.6,17.72,SE,145,4.0,6.3,82,0.00,,,0.00,VWS V14.01,2013-03-12 05:44:00,
2013-03-12 01:49:00,67.3,61.6,17.72,SE,127,4.9,8.3,82,0.00,,,0.00,VWS V14.01,2013-03-12 05:49:00,
2013-03-12 01:54:00,67.1,61.4,17.72,SSW,213,4.0,8.1,82,0.00,,,0.00,VWS V14.01,2013-03-12 05:54:00,
2013-03-12 01:59:00,67.3,61.6,17.72,SSW,192,5.8,5.8,82,0.00,,,0.00,VWS V14.01,2013-03-12 05:59:00,
2013-03-12 02:04:00,67.3,61.6,17.72,SSW,203,3.1,6.3,82,0.00,,,0.00,VWS V14.01,2013-03-12 06:04:00,
2013-03-12 02:09:00,67.3,61.6,17.72,SSE,157,4.0,4.0,82,0.00,,,0.00,VWS V14.01,2013-03-12 06:09:00,
2013-03-12 02:14:00,67.3,61.6,17.72,South,169,4.9,6.3,82,0.00,,,0.00,VWS V14.01,2013-03-12 06:14:00,
2013-03-12 02:20:00,67.3,61.6,17.72,ESE,115,7.6,7.6,82,0.00,,,0.00,VWS V14.01,2013-03-12 06:20:00,
2013-03-12 02:25:00,67.3,61.6,17.72,ESE,120,5.8,8.3,82,0.00,,,0.00,VWS V14.01,2013-03-12 06:25:00,
2013-03-12 02:31:00,67.5,61.8,17.72,SSE,152,0.0,8.1,82,0.00,,,0.00,VWS V14.01,2013-03-12 06:31:00,
2013-03-12 02:37:00,67.3,61.6,17.72,South,169,8.1,8.1,82,0.00,,,0.00,VWS V14.01,2013-03-12 06:37:00,
2013-03-12 02:43:00,67.3,61.6,17.72,SSE,150,3.1,8.1,82,0.00,,,0.00,VWS V14.01,2013-03-12 06:43:00,
2013-03-12 02:48:00,67.3,61.6,17.72,SW,223,5.4,5.4,82,0.00,,,0.00,VWS V14.01,2013-03-12 06:48:00,
2013-03-12 02:54:00,67.3,61.6,17.72,ESE,106,0.0,3.1,82,0.00,,,0.00,VWS V14.01,2013-03-12 06:54:00,
2013-03-12 02:59:00,67.3,61.6,17.72,SSE,154,0.0,5.8,82,0.00,,,0.00,VWS V14.01,2013-03-12 06:59:00,
2013-03-12 03:04:00,67.1,61.4,17.72,SSE,151,0.0,2.7,82,0.00,,,0.00,VWS V14.01,2013-03-12 07:04:00,
2013-03-12 03:09:00,67.1,61.4,17.72,ESE,115,3.6,3.6,82,0.00,,,0.00,VWS V14.01,2013-03-12 07:09:00,
2013-03-12 03:15:00,67.1,61.4,17.72,ESE,117,4.0,8.7,82,0.00,,,0.00,VWS V14.01,2013-03-12 07:15:00,
2013-03-12 03:20:00,67.1,61.4,17.72,East,100,6.3,8.7,82,0.00,,,0.00,VWS V14.01,2013-03-12 07:20:00,
2013-03-12 03:25:00,67.3,61.6,17.72,SE,141,0.0,3.1,82,0.00,,,0.00,VWS V14.01,2013-03-12 07:25:00,
2013-03-12 03:30:00,67.3,61.6,17.72,SSE,151,3.1,6.3,82,0.00,,,0.00,VWS V14.01,2013-03-12 07:30:00,
2013-03-12 03:35:00,67.1,61.4,17.72,ESE,103,2.7,5.8,82,0.00,,,0.00,VWS V14.01,2013-03-12 07:35:00,
2013-03-12 03:40:00,67.1,61.4,17.72,SE,129,2.7,5.8,82,0.00,,,0.00,VWS V14.01,2013-03-12 07:40:00,
2013-03-12 03:45:00,67.1,61.4,17.72,SSW,196,3.1,4.0,82,0.00,,,0.00,VWS V14.01,2013-03-12 07:45:00,
2013-03-12 03:51:00,66.9,61.2,17.72,SSE,164,3.1,4.0,82,0.00,,,0.00,VWS V14.01,2013-03-12 07:51:00,
2013-03-12 03:57:00,66.9,61.2,17.72,SE,140,5.4,5.4,82,0.00,,,0.00,VWS V14.01,2013-03-12 07:57:00,
2013-03-12 04:02:00,66.7,61.1,17.72,SSW,198,3.1,5.4,82,0.00,,,0.00,VWS V14.01,2013-03-12 08:02:00,
2013-03-12 04:08:00,66.7,61.1,17.72,SSE,160,0.0,0.0,82,0.00,,,0.00,VWS V14.01,2013-03-12 08:08:00,
2013-03-12 04:13:00,66.6,61.2,17.72,SE,144,0.0,0.0,83,0.00,,,0.00,VWS V14.01,2013-03-12 08:13:00,
2013-03-12 04:18:00,66.6,61.2,17.72,SW,219,4.0,4.0,83,0.00,,,0.00,VWS V14.01,2013-03-12 08:18:00,
2013-03-12 04:23:00,66.6,61.2,17.72,SE,139,3.6,4.0,83,0.00,,,0.00,VWS V14.01,2013-03-12 08:23:00,
2013-03-12 04:29:00,66.4,61.1,17.72,SSE,152,3.1,4.0,83,0.00,,,0.00,VWS V14.01,2013-03-12 08:29:00,
2013-03-12 04:35:00,66.4,61.1,17.72,SE,124,0.0,0.0,83,0.00,,,0.00,VWS V14.01,2013-03-12 08:35:00,
2013-03-12 04:40:00,66.4,61.1,17.72,South,178,2.7,5.8,83,0.00,,,0.00,VWS V14.01,2013-03-12 08:40:00,
2013-03-12 04:46:00,66.2,60.9,17.72,SE,141,0.0,0.0,83,0.00,,,0.00,VWS V14.01,2013-03-12 08:46:00,
2013-03-12 04:52:00,66.2,60.9,17.72,SSE,153,0.0,0.0,83,0.00,,,0.00,VWS V14.01,2013-03-12 08:52:00,
2013-03-12 04:57:00,66.2,60.9,17.72,ESE,106,3.6,4.9,83,0.00,,,0.00,VWS V14.01,2013-03-12 08:57:00,
2013-03-12 05:03:00,66.0,61.0,17.72,SE,129,0.0,0.0,84,0.00,,,0.00,VWS V14.01,2013-03-12 09:03:00,
2013-03-12 05:08:00,66.0,61.0,17.72,SSE,165,0.0,0.0,84,0.00,,,0.00,VWS V14.01,2013-03-12 09:08:00,
2013-03-12 05:14:00,66.0,61.0,17.72,SSE,165,0.0,0.0,84,0.00,,,0.00,VWS V14.01,2013-03-12 09:14:00,
2013-03-12 05:19:00,66.0,61.0,17.72,SSE,165,0.0,0.0,84,0.00,,,0.00,VWS V14.01,2013-03-12 09:19:00,
2013-03-12 05:24:00,65.8,60.9,17.72,SSE,165,0.0,0.0,84,0.00,,,0.00,VWS V14.01,2013-03-12 09:24:00,
2013-03-12 05:29:00,65.8,61.2,17.72,SSE,165,0.0,0.0,85,0.00,,,0.00,VWS V14.01,2013-03-12 09:29:00,
2013-03-12 05:35:00,65.7,61.0,17.72,SSE,165,0.0,0.0,85,0.00,,,0.00,VWS V14.01,2013-03-12 09:35:00,
2013-03-12 05:40:00,65.7,61.0,17.72,SSE,165,0.0,0.0,85,0.00,,,0.00,VWS V14.01,2013-03-12 09:40:00,
2013-03-12 05:45:00,65.7,61.0,17.72,SSE,165,0.0,0.0,85,0.00,,,0.00,VWS V14.01,2013-03-12 09:45:00,
2013-03-12 05:50:00,65.7,61.0,17.72,SSE,165,0.0,0.0,85,0.00,,,0.00,VWS V14.01,2013-03-12 09:50:00,
2013-03-12 05:55:00,65.7,61.0,17.72,SSE,165,0.0,0.0,85,0.00,,,0.00,VWS V14.01,2013-03-12 09:55:00,
2013-03-12 06:00:00,65.7,61.0,17.72,SSE,152,0.0,4.0,85,0.00,,,0.00,VWS V14.01,2013-03-12 10:00:00,
2013-03-12 06:07:00,65.7,61.4,17.72,SSE,147,0.0,0.0,86,0.00,,,0.00,VWS V14.01,2013-03-12 10:07:00,
2013-03-12 06:12:00,65.7,61.4,17.72,ESE,111,0.0,0.0,86,0.00,,,0.00,VWS V14.01,2013-03-12 10:12:00,
2013-03-12 06:18:00,65.7,61.4,17.72,SSE,157,0.0,0.0,86,0.00,,,0.00,VWS V14.01,2013-03-12 10:18:00,
2013-03-12 06:24:00,65.7,61.4,17.72,SSE,153,0.0,0.0,86,0.00,,,0.00,VWS V14.01,2013-03-12 10:24:00,
2013-03-12 06:29:00,65.7,61.4,17.72,SSE,152,0.0,0.0,86,0.00,,,0.00,VWS V14.01,2013-03-12 10:29:00,
2013-03-12 06:35:00,65.7,61.7,17.72,SE,146,0.0,5.4,87,0.00,,,0.00,VWS V14.01,2013-03-12 10:35:00,
2013-03-12 06:40:00,65.7,61.7,17.72,SE,143,0.0,0.0,87,0.00,,,0.00,VWS V14.01,2013-03-12 10:40:00,
2013-03-12 06:47:00,65.8,61.9,17.72,SE,130,0.0,2.2,87,0.00,,,0.00,VWS V14.01,2013-03-12 10:47:00,
2013-03-12 06:52:00,65.8,61.9,17.72,East,87,3.1,3.6,87,0.00,,,0.00,VWS V14.01,2013-03-12 10:52:00,
2013-03-12 06:58:00,65.8,62.2,17.72,SE,128,2.7,4.9,88,0.00,,,0.00,VWS V14.01,2013-03-12 10:58:00,
2013-03-12 07:03:00,65.8,62.2,17.72,SSE,153,2.7,4.0,88,0.00,,,0.00,VWS V14.01,2013-03-12 11:03:00,
2013-03-12 07:09:00,65.8,62.2,17.72,ESE,105,3.1,5.8,88,0.00,,,0.00,VWS V14.01,2013-03-12 11:09:00,
2013-03-12 07:14:00,66.0,62.4,17.72,SSW,210,5.8,5.8,88,0.00,,,0.00,VWS V14.01,2013-03-12 11:14:00,
2013-03-12 07:19:00,66.2,62.5,17.72,WSW,245,4.9,5.8,88,0.00,,,0.00,VWS V14.01,2013-03-12 11:19:00,
2013-03-12 07:25:00,66.4,62.7,17.72,WSW,252,4.0,7.6,88,0.00,,,0.00,VWS V14.01,2013-03-12 11:25:00,
2013-03-12 07:30:00,66.4,63.0,17.72,SE,130,4.0,5.4,89,0.00,,,0.00,VWS V14.01,2013-03-12 11:30:00,
2013-03-12 07:35:00,66.6,63.2,17.72,SSE,158,8.1,8.1,89,0.00,,,0.00,VWS V14.01,2013-03-12 11:35:00,
2013-03-12 07:41:00,66.6,63.2,17.72,SSW,196,3.1,7.6,89,0.00,,,0.00,VWS V14.01,2013-03-12 11:41:00,
2013-03-12 07:47:00,66.7,63.4,17.72,SSW,196,3.1,3.1,89,0.00,,,0.00,VWS V14.01,2013-03-12 11:47:00,
2013-03-12 07:52:00,66.9,63.6,17.72,South,178,3.6,4.0,89,0.00,,,0.00,VWS V14.01,2013-03-12 11:52:00,
2013-03-12 07:58:00,66.9,63.6,17.72,ESE,118,3.6,4.5,89,0.00,,,0.00,VWS V14.01,2013-03-12 11:58:00,
2013-03-12 08:03:00,67.1,63.8,17.72,SSE,161,0.0,2.2,89,0.00,,,0.00,VWS V14.01,2013-03-12 12:03:00,
2013-03-12 08:08:00,67.1,63.8,17.72,SSW,206,2.2,4.9,89,0.00,,,0.00,VWS V14.01,2013-03-12 12:08:00,
2013-03-12 08:13:00,67.3,63.9,17.72,South,187,0.0,0.0,89,0.00,,,0.00,VWS V14.01,2013-03-12 12:13:00,
2013-03-12 08:18:00,67.5,64.1,17.72,ESE,120,0.0,5.8,89,0.00,,,0.00,VWS V14.01,2013-03-12 12:18:00,
2013-03-12 08:24:00,67.6,64.3,17.72,ESE,105,4.0,4.9,89,0.00,,,0.00,VWS V14.01,2013-03-12 12:24:00,
2013-03-12 08:29:00,67.8,64.5,17.72,South,175,0.0,2.7,89,0.00,,,0.00,VWS V14.01,2013-03-12 12:29:00,
2013-03-12 08:34:00,67.8,64.5,17.72,WSW,243,0.0,0.0,89,0.00,,,0.00,VWS V14.01,2013-03-12 12:34:00,
2013-03-12 08:40:00,68.0,64.6,17.72,SE,133,3.6,5.4,89,0.00,,,0.00,VWS V14.01,2013-03-12 12:40:00,
2013-03-12 08:47:00,68.2,64.8,17.72,SW,234,4.9,5.4,89,0.00,,,0.00,VWS V14.01,2013-03-12 12:47:00,
2013-03-12 08:52:00,68.4,65.0,17.72,SE,135,5.4,5.4,89,0.00,,,0.00,VWS V14.01,2013-03-12 12:52:00,
2013-03-12 08:57:00,68.4,65.0,17.72,SSE,162,5.8,5.8,89,0.00,,,0.00,VWS V14.01,2013-03-12 12:57:00,
2013-03-12 09:02:00,68.5,65.2,17.72,SSW,195,4.0,5.4,89,0.00,,,0.00,VWS V14.01,2013-03-12 13:02:00,
2013-03-12 09:08:00,68.7,65.3,17.72,South,190,0.0,4.9,89,0.00,,,0.00,VWS V14.01,2013-03-12 13:08:00,
2013-03-12 09:13:00,68.9,65.5,17.72,South,182,2.7,5.4,89,0.00,,,0.00,VWS V14.01,2013-03-12 13:13:00,
2013-03-12 09:19:00,69.3,65.9,17.72,SE,146,6.3,6.3,89,0.00,,,0.00,VWS V14.01,2013-03-12 13:19:00,
2013-03-12 09:24:00,69.6,66.2,17.72,WSW,237,0.0,5.8,89,0.00,,,0.00,VWS V14.01,2013-03-12 13:24:00,
2013-03-12 09:29:00,69.8,66.4,17.72,SSW,200,0.0,3.6,89,0.00,,,0.00,VWS V14.01,2013-03-12 13:29:00,
2013-03-12 09:34:00,70.2,66.8,17.72,South,187,2.7,5.4,89,0.00,,,0.00,VWS V14.01,2013-03-12 13:34:00,
2013-03-12 09:39:00,70.7,67.3,17.72,East,90,0.0,4.0,89,0.00,,,0.00,VWS V14.01,2013-03-12 13:39:00,
2013-03-12 09:44:00,70.9,67.5,17.72,WNW,297,3.6,7.2,89,0.00,,,0.00,VWS V14.01,2013-03-12 13:44:00,
2013-03-12 09:50:00,71.1,67.7,17.72,SE,144,5.4,5.8,89,0.00,,,0.00,VWS V14.01,2013-03-12 13:50:00,
2013-03-12 09:55:00,71.2,67.8,17.72,SSE,151,7.6,7.6,89,0.00,,,0.00,VWS V14.01,2013-03-12 13:55:00,
2013-03-12 10:01:00,71.6,67.9,17.72,WSW,238,3.6,5.8,88,0.00,,,0.00,VWS V14.01,2013-03-12 14:01:00,
2013-03-12 10:07:00,72.1,68.4,17.72,SSE,162,5.4,7.2,88,0.00,,,0.00,VWS V14.01,2013-03-12 14:07:00,
2013-03-12 10:12:00,72.1,68.1,17.72,SW,225,5.8,8.7,87,0.00,,,0.00,VWS V14.01,2013-03-12 14:12:00,
2013-03-12 10:17:00,72.0,67.9,17.72,SW,218,5.8,6.7,87,0.00,,,0.00,VWS V14.01,2013-03-12 14:17:00,
2013-03-12 10:23:00,72.0,67.9,17.72,South,169,12.8,15.4,87,0.00,,,0.00,VWS V14.01,2013-03-12 14:23:00,
2013-03-12 10:28:00,72.0,67.9,17.72,SW,231,2.7,3.6,87,0.00,,,0.00,VWS V14.01,2013-03-12 14:28:00,
2013-03-12 10:33:00,72.0,67.9,17.72,South,178,3.1,7.2,87,0.00,,,0.00,VWS V14.01,2013-03-12 14:33:00,
2013-03-12 10:39:00,72.0,67.9,17.72,WSW,241,9.2,9.2,87,0.00,,,0.00,VWS V14.01,2013-03-12 14:39:00,
2013-03-12 10:44:00,72.0,67.6,17.72,WSW,239,5.4,6.3,86,0.00,,,0.00,VWS V14.01,2013-03-12 14:44:00,
2013-03-12 10:49:00,72.0,67.6,17.72,West,260,4.0,8.7,86,0.00,,,0.00,VWS V14.01,2013-03-12 14:49:00,
2013-03-12 10:55:00,72.0,67.6,17.72,SW,226,7.6,7.6,86,0.00,,,0.00,VWS V14.01,2013-03-12 14:55:00,
2013-03-12 11:00:00,72.0,67.6,17.72,ESE,117,6.3,6.3,86,0.00,,,0.00,VWS V14.01,2013-03-12 15:00:00,
2013-03-12 11:05:00,71.8,67.4,17.72,SSW,198,3.6,5.8,86,0.00,,,0.00,VWS V14.01,2013-03-12 15:05:00,
2013-03-12 11:11:00,71.8,67.4,17.72,NNW,333,6.3,8.7,86,0.00,,,0.00,VWS V14.01,2013-03-12 15:11:00,
2013-03-12 11:17:00,71.8,67.4,17.72,SW,236,5.4,5.4,86,0.00,,,0.00,VWS V14.01,2013-03-12 15:17:00,
2013-03-12 11:22:00,71.8,67.4,17.72,WNW,291,5.8,8.1,86,0.00,,,0.00,VWS V14.01,2013-03-12 15:22:00,
2013-03-12 11:27:00,71.8,67.4,17.72,WNW,283,3.1,8.7,86,0.00,,,0.00,VWS V14.01,2013-03-12 15:27:00,
2013-03-12 11:33:00,71.8,67.4,17.72,WSW,241,6.3,8.7,86,0.00,,,0.00,VWS V14.01,2013-03-12 15:33:00,
2013-03-12 11:38:00,71.8,67.4,17.72,NNW,338,0.0,8.7,86,0.00,,,0.00,VWS V14.01,2013-03-12 15:38:00,
2013-03-12 11:43:00,71.6,67.5,17.72,WNW,292,6.3,10.1,87,0.00,,,0.00,VWS V14.01,2013-03-12 15:43:00,
2013-03-12 11:48:00,71.2,67.5,17.72,West,272,5.4,6.3,88,0.00,,,0.00,VWS V14.01,2013-03-12 15:48:00,
2013-03-12 11:54:00,71.1,67.7,17.72,SW,226,6.3,10.1,89,0.00,,,0.00,VWS V14.01,2013-03-12 15:54:00,
2013-03-12 12:00:00,70.9,67.5,17.72,WSW,239,4.9,4.9,89,0.00,,,0.00,VWS V14.01,2013-03-12 16:00:00,
2013-03-12 12:05:00,70.9,67.5,17.72,SW,216,0.0,4.0,89,0.00,,,0.00,VWS V14.01,2013-03-12 16:05:00,
2013-03-12 12:12:00,71.2,67.8,17.72,WSW,254,4.0,5.8,89,0.00,,,0.00,VWS V14.01,2013-03-12 16:12:00,
2013-03-12 12:18:00,71.2,68.2,17.72,South,179,7.6,7.6,90,0.00,,,0.00,VWS V14.01,2013-03-12 16:18:00,
2013-03-12 12:23:00,71.2,68.2,17.72,SSW,208,5.8,5.8,90,0.00,,,0.00,VWS V14.01,2013-03-12 16:23:00,
2013-03-12 12:29:00,71.2,68.2,17.72,ESE,114,5.4,11.0,90,0.00,,,0.00,VWS V14.01,2013-03-12 16:29:00,
2013-03-12 12:34:00,71.2,67.8,17.72,SW,225,2.7,8.3,89,0.00,,,0.00,VWS V14.01,2013-03-12 16:34:00,
2013-03-12 12:40:00,71.2,67.8,17.72,SW,216,3.6,9.6,89,0.00,,,0.00,VWS V14.01,2013-03-12 16:40:00,
2013-03-12 12:47:00,71.2,67.8,17.72,SW,217,4.0,8.1,89,0.00,,,0.00,VWS V14.01,2013-03-12 16:47:00,
2013-03-12 12:53:00,71.2,67.8,17.72,SSE,159,5.8,7.6,89,0.00,,,0.00,VWS V14.01,2013-03-12 16:53:00,
2013-03-12 12:58:00,71.4,68.0,17.72,WSW,244,4.0,4.0,89,0.00,,,0.00,VWS V14.01,2013-03-12 16:58:00,
2013-03-12 13:03:00,71.6,67.9,17.72,SSW,197,5.4,6.7,88,0.00,,,0.00,VWS V14.01,2013-03-12 17:03:00,
2013-03-12 13:08:00,71.6,68.2,17.72,WSW,251,5.8,8.3,89,0.00,,,0.00,VWS V14.01,2013-03-12 17:08:00,
2013-03-12 13:14:00,71.8,68.4,17.72,SW,234,8.1,8.1,89,0.00,,,0.00,VWS V14.01,2013-03-12 17:14:00,
2013-03-12 13:19:00,72.0,68.6,17.72,WSW,247,10.5,10.5,89,0.00,,,0.00,VWS V14.01,2013-03-12 17:19:00,
2013-03-12 13:25:00,72.3,68.9,17.72,WSW,257,7.2,11.4,89,0.00,,,0.00,VWS V14.01,2013-03-12 17:25:00,
2013-03-12 13:31:00,72.7,68.9,17.72,NE,56,2.2,13.2,88,0.00,,,0.00,VWS V14.01,2013-03-12 17:31:00,
2013-03-12 13:36:00,72.9,68.8,17.72,SSW,209,6.3,12.8,87,0.00,,,0.00,VWS V14.01,2013-03-12 17:36:00,
2013-03-12 13:41:00,73.0,68.9,17.72,SW,224,5.8,10.5,87,0.00,,,0.00,VWS V14.01,2013-03-12 17:41:00,
2013-03-12 13:47:00,73.4,68.6,17.72,WSW,238,8.1,18.8,85,0.00,,,0.00,VWS V14.01,2013-03-12 17:47:00,
2013-03-12 13:53:00,74.1,68.6,17.72,SW,229,5.8,10.5,83,0.00,,,0.00,VWS V14.01,2013-03-12 17:53:00,
2013-03-12 13:59:00,74.8,69.0,17.72,WNW,287,10.5,17.0,82,0.00,,,0.00,VWS V14.01,2013-03-12 17:59:00,
2013-03-12 14:04:00,75.0,68.8,17.72,SSW,211,4.0,14.5,81,0.00,,,0.00,VWS V14.01,2013-03-12 18:04:00,
2013-03-12 14:09:00,75.0,68.1,17.72,WSW,243,8.1,11.0,79,0.00,,,0.00,VWS V14.01,2013-03-12 18:09:00,
2013-03-12 14:14:00,75.2,67.9,17.72,SW,217,7.2,8.7,78,0.00,,,0.00,VWS V14.01,2013-03-12 18:14:00,
2013-03-12 14:20:00,74.8,67.9,17.72,South,184,5.8,10.5,79,0.00,,,0.00,VWS V14.01,2013-03-12 18:20:00,
2013-03-12 14:25:00,74.7,67.7,17.72,West,277,9.6,10.1,79,0.00,,,0.00,VWS V14.01,2013-03-12 18:25:00,
2013-03-12 14:31:00,74.5,67.9,17.72,SSE,162,6.3,9.6,80,0.00,,,0.00,VWS V14.01,2013-03-12 18:31:00,
2013-03-12 14:37:00,74.3,67.7,17.72,SW,218,5.4,6.3,80,0.00,,,0.00,VWS V14.01,2013-03-12 18:37:00,
2013-03-12 14:42:00,74.1,67.9,17.72,WSW,241,15.4,15.4,81,0.00,,,0.00,VWS V14.01,2013-03-12 18:42:00,
2013-03-12 14:47:00,73.8,67.6,17.72,WNW,284,8.3,8.3,81,0.00,,,0.00,VWS V14.01,2013-03-12 18:47:00,
2013-03-12 14:52:00,73.6,67.8,17.72,WNW,303,4.0,8.7,82,0.00,,,0.00,VWS V14.01,2013-03-12 18:52:00,
2013-03-12 14:57:00,73.4,67.6,17.72,WSW,245,5.4,11.0,82,0.00,,,0.00,VWS V14.01,2013-03-12 18:57:00,
2013-03-12 15:03:00,73.0,67.2,17.72,ENE,69,8.7,10.5,82,0.00,,,0.00,VWS V14.01,2013-03-12 19:03:00,
2013-03-12 15:08:00,72.7,67.2,17.72,WSW,242,5.8,15.4,83,0.00,,,0.00,VWS V14.01,2013-03-12 19:08:00,
2013-03-12 15:13:00,72.5,67.1,17.72,WSW,237,5.8,10.1,83,0.00,,,0.00,VWS V14.01,2013-03-12 19:13:00,
2013-03-12 15:18:00,72.7,67.2,17.72,WSW,251,5.4,13.2,83,0.00,,,0.00,VWS V14.01,2013-03-12 19:18:00,
2013-03-12 15:24:00,73.4,67.6,17.72,WNW,293,8.3,10.1,82,0.00,,,0.00,VWS V14.01,2013-03-12 19:24:00,
2013-03-12 15:30:00,72.9,67.1,17.72,South,186,8.1,11.4,82,0.00,,,0.00,VWS V14.01,2013-03-12 19:30:00,
2013-03-12 15:35:00,72.5,67.1,17.72,WNW,295,6.3,8.7,83,0.00,,,0.00,VWS V14.01,2013-03-12 19:35:00,
2013-03-12 15:42:00,71.1,65.3,17.72,WNW,289,3.1,4.0,82,0.00,,,0.00,VWS V14.01,2013-03-12 19:42:00,
2013-03-12 15:47:00,70.5,64.4,17.72,North,350,0.0,5.4,81,0.00,,,0.00,VWS V14.01,2013-03-12 19:47:00,
2013-03-12 15:52:00,69.8,63.7,17.72,NW,304,4.0,6.3,81,0.00,,,0.00,VWS V14.01,2013-03-12 19:52:00,
2013-03-12 15:57:00,69.3,63.2,17.72,NW,317,3.1,4.0,81,0.00,,,0.00,VWS V14.01,2013-03-12 19:57:00,
2013-03-12 16:02:00,69.3,63.2,17.72,WNW,302,0.0,3.1,81,0.00,,,0.00,VWS V14.01,2013-03-12 20:02:00,
2013-03-12 16:08:00,69.4,63.4,17.72,NW,318,0.0,5.8,81,0.00,,,0.00,VWS V14.01,2013-03-12 20:08:00,
2013-03-12 16:13:00,69.3,63.2,17.72,WNW,292,0.0,0.0,81,0.00,,,0.00,VWS V14.01,2013-03-12 20:13:00,
2013-03-12 16:19:00,69.1,63.0,17.72,NW,321,0.0,0.0,81,0.00,,,0.00,VWS V14.01,2013-03-12 20:19:00,
2013-03-12 16:24:00,68.9,62.8,17.72,NNW,328,0.0,5.4,81,0.00,,,0.00,VWS V14.01,2013-03-12 20:24:00,
2013-03-12 16:29:00,68.9,62.8,17.72,WNW,303,0.0,0.0,81,0.00,,,0.00,VWS V14.01,2013-03-12 20:29:00,
2013-03-12 16:34:00,68.7,62.7,17.72,NW,318,0.0,0.0,81,0.00,,,0.00,VWS V14.01,2013-03-12 20:34:00,
2013-03-12 16:39:00,68.7,62.7,17.72,NW,322,0.0,0.0,81,0.00,,,0.00,VWS V14.01,2013-03-12 20:39:00,
2013-03-12 16:45:00,68.4,62.7,17.72,WNW,293,0.0,0.0,82,0.00,,,0.00,VWS V14.01,2013-03-12 20:45:00,
2013-03-12 16:51:00,68.4,62.7,17.72,NW,308,0.0,0.0,82,0.00,,,0.00,VWS V14.01,2013-03-12 20:51:00,
2013-03-12 16:57:00,68.4,62.7,17.72,WNW,299,0.0,0.0,82,0.00,,,0.00,VWS V14.01,2013-03-12 20:57:00,
2013-03-12 17:02:00,68.4,62.7,17.72,NW,321,0.0,0.0,82,0.00,,,0.00,VWS V14.01,2013-03-12 21:02:00,
2013-03-12 17:07:00,68.2,62.5,17.72,NW,313,0.0,2.2,82,0.00,,,0.00,VWS V14.01,2013-03-12 21:07:00,
2013-03-12 17:12:00,68.2,62.8,17.72,NW,313,0.0,0.0,83,0.00,,,0.00,VWS V14.01,2013-03-12 21:12:00,
2013-03-12 17:18:00,68.2,62.5,17.72,WNW,291,0.0,3.1,82,0.00,,,0.00,VWS V14.01,2013-03-12 21:18:00,
2013-03-12 17:23:00,68.5,62.8,17.72,NW,309,0.0,0.0,82,0.00,,,0.00,VWS V14.01,2013-03-12 21:23:00,
2013-03-12 17:28:00,68.5,62.5,17.72,NW,309,0.0,0.0,81,0.00,,,0.00,VWS V14.01,2013-03-12 21:28:00,
2013-03-12 17:34:00,68.5,62.5,17.72,NW,309,0.0,0.0,81,0.00,,,0.00,VWS V14.01,2013-03-12 21:34:00,
2013-03-12 17:40:00,68.5,62.5,17.72,NW,309,0.0,0.0,81,0.00,,,0.00,VWS V14.01,2013-03-12 21:40:00,
2013-03-12 17:47:00,68.4,62.0,17.72,NW,309,0.0,0.0,80,0.00,,,0.00,VWS V14.01,2013-03-12 21:47:00,
2013-03-12 17:53:00,68.5,62.1,17.72,NW,309,0.0,0.0,80,0.00,,,0.00,VWS V14.01,2013-03-12 21:53:00,
2013-03-12 17:58:00,68.5,62.1,17.72,WNW,303,2.7,6.3,80,0.00,,,0.00,VWS V14.01,2013-03-12 21:58:00,
2013-03-12 18:03:00,68.4,61.6,17.72,WNW,294,0.0,0.0,79,0.00,,,0.00,VWS V14.01,2013-03-12 22:03:00,
2013-03-12 18:08:00,68.2,61.4,17.72,WNW,287,0.0,2.7,79,0.00,,,0.00,VWS V14.01,2013-03-12 22:08:00,
2013-03-12 18:14:00,68.2,61.4,17.72,WNW,283,0.0,2.2,79,0.00,,,0.00,VWS V14.01,2013-03-12 22:14:00,
2013-03-12 18:19:00,68.0,61.2,17.72,NW,306,0.0,0.0,79,0.00,,,0.00,VWS V14.01,2013-03-12 22:19:00,
2013-03-12 18:24:00,68.0,61.2,17.72,NW,306,0.0,0.0,79,0.00,,,0.00,VWS V14.01,2013-03-12 22:24:00,
2013-03-12 18:29:00,68.0,61.2,17.72,WNW,301,2.7,2.7,79,0.00,,,0.00,VWS V14.01,2013-03-12 22:29:00,
2013-03-12 18:34:00,67.8,61.4,17.72,WNW,285,0.0,0.0,80,0.00,,,0.00,VWS V14.01,2013-03-12 22:34:00,
2013-03-12 18:40:00,68.0,61.2,17.72,WNW,285,0.0,0.0,79,0.00,,,0.00,VWS V14.01,2013-03-12 22:40:00,
2013-03-12 18:45:00,67.8,61.4,17.72,NW,312,0.0,0.0,80,0.00,,,0.00,VWS V14.01,2013-03-12 22:45:00,
2013-03-12 18:50:00,67.8,61.4,17.72,NW,306,0.0,0.0,80,0.00,,,0.00,VWS V14.01,2013-03-12 22:50:00,
2013-03-12 18:56:00,67.6,61.3,17.72,NW,307,0.0,4.0,80,0.00,,,0.00,VWS V14.01,2013-03-12 22:56:00,
2013-03-12 19:01:00,67.6,61.3,17.72,NW,305,0.0,4.0,80,0.00,,,0.00,VWS V14.01,2013-03-12 23:01:00,
2013-03-12 19:07:00,67.5,61.1,17.72,NW,306,0.0,0.0,80,0.00,,,0.00,VWS V14.01,2013-03-12 23:07:00,
2013-03-12 19:12:00,67.5,61.1,17.72,NW,306,0.0,0.0,80,0.00,,,0.00,VWS V14.01,2013-03-12 23:12:00,
2013-03-12 19:18:00,67.3,60.9,17.72,WNW,289,0.0,0.0,80,0.00,,,0.00,VWS V14.01,2013-03-12 23:18:00,
2013-03-12 19:24:00,67.1,60.4,17.72,WNW,293,3.1,5.8,79,0.00,,,0.00,VWS V14.01,2013-03-12 23:24:00,
2013-03-12 19:29:00,66.9,60.2,17.72,NW,315,0.0,3.1,79,0.00,,,0.00,VWS V14.01,2013-03-12 23:29:00,
2013-03-12 19:35:00,66.7,60.0,17.72,NW,305,0.0,0.0,79,0.00,,,0.00,VWS V14.01,2013-03-12 23:35:00,
2013-03-12 19:40:00,66.7,60.0,17.72,NNW,336,0.0,0.0,79,0.00,,,0.00,VWS V14.01,2013-03-12 23:40:00,
2013-03-12 19:47:00,66.6,59.8,17.72,NNW,332,0.0,0.0,79,0.00,,,0.00,VWS V14.01,2013-03-12 23:47:00,
2013-03-12 19:53:00,66.4,59.3,17.72,NW,306,3.6,5.8,78,0.00,,,0.00,VWS V14.01,2013-03-12 23:53:00,
2013-03-12 19:58:00,66.2,59.2,17.72,NW,307,0.0,0.0,78,0.00,,,0.00,VWS V14.01,2013-03-12 23:58:00,
2013-03-12 20:04:00,66.0,59.0,17.72,WNW,298,0.0,0.0,78,0.00,,,0.00,VWS V14.01,2013-03-13 00:04:00,
2013-03-12 20:10:00,66.0,59.0,17.72,NW,312,0.0,3.1,78,0.00,,,0.00,VWS V14.01,2013-03-13 00:10:00,
2013-03-12 20:15:00,66.0,59.0,17.72,WNW,290,4.0,4.0,78,0.00,,,0.00,VWS V14.01,2013-03-13 00:15:00,
2013-03-12 20:22:00,65.8,58.8,17.72,WNW,300,0.0,0.0,78,0.00,,,0.00,VWS V14.01,2013-03-13 00:22:00,
2013-03-12 20:28:00,65.8,58.8,17.72,NW,304,0.0,0.0,78,0.00,,,0.00,VWS V14.01,2013-03-13 00:28:00,
2013-03-12 20:33:00,65.7,58.6,17.72,NW,310,0.0,3.6,78,0.00,,,0.00,VWS V14.01,2013-03-13 00:33:00,
2013-03-12 20:39:00,65.7,58.6,17.72,NW,310,0.0,0.0,78,0.00,,,0.00,VWS V14.01,2013-03-13 00:39:00,
2013-03-12 20:45:00,65.3,58.6,17.72,WNW,296,0.0,0.0,79,0.00,,,0.00,VWS V14.01,2013-03-13 00:45:00,
2013-03-12 20:50:00,65.1,58.5,17.72,NW,308,0.0,0.0,79,0.00,,,0.00,VWS V14.01,2013-03-13 00:50:00,
2013-03-12 20:55:00,64.8,58.1,17.72,NW,321,0.0,6.3,79,0.00,,,0.00,VWS V14.01,2013-03-13 00:55:00,
2013-03-12 21:00:00,64.6,57.9,17.72,NW,315,0.0,0.0,79,0.00,,,0.00,VWS V14.01,2013-03-13 01:00:00,
2013-03-12 21:06:00,64.4,57.8,17.72,NW,315,0.0,0.0,79,0.00,,,0.00,VWS V14.01,2013-03-13 01:06:00,
2013-03-12 21:11:00,64.2,57.9,17.72,NW,320,0.0,0.0,80,0.00,,,0.00,VWS V14.01,2013-03-13 01:11:00,
2013-03-12 21:17:00,64.0,57.8,17.72,NW,321,0.0,0.0,80,0.00,,,0.00,VWS V14.01,2013-03-13 01:17:00,
2013-03-12 21:22:00,63.9,57.6,17.72,WNW,303,0.0,0.0,80,0.00,,,0.00,VWS V14.01,2013-03-13 01:22:00,
2013-03-12 21:28:00,63.7,57.4,17.72,WNW,303,0.0,0.0,80,0.00,,,0.00,VWS V14.01,2013-03-13 01:28:00,
2013-03-12 21:33:00,63.5,57.2,17.72,WNW,303,0.0,0.0,80,0.00,,,0.00,VWS V14.01,2013-03-13 01:33:00,
2013-03-12 21:39:00,63.3,57.0,17.72,WNW,303,0.0,0.0,80,0.00,,,0.00,VWS V14.01,2013-03-13 01:39:00,
2013-03-12 21:45:00,63.1,56.9,17.72,WNW,303,0.0,0.0,80,0.00,,,0.00,VWS V14.01,2013-03-13 01:45:00,
2013-03-12 21:50:00,63.1,56.9,17.72,WNW,303,0.0,0.0,80,0.00,,,0.00,VWS V14.01,2013-03-13 01:50:00,
2013-03-12 21:57:00,63.0,56.3,17.72,WNW,303,0.0,0.0,79,0.00,,,0.00,VWS V14.01,2013-03-13 01:57:00,
2013-03-12 22:03:00,62.8,55.8,17.72,WNW,303,0.0,0.0,78,0.00,,,0.00,VWS V14.01,2013-03-13 02:03:00,
2013-03-12 22:08:00,62.6,55.7,17.72,WNW,303,0.0,0.0,78,0.00,,,0.00,VWS V14.01,2013-03-13 02:08:00,
2013-03-12 22:14:00,62.4,55.5,17.72,WNW,303,0.0,0.0,78,0.00,,,0.00,VWS V14.01,2013-03-13 02:14:00,
2013-03-12 22:20:00,62.2,55.0,17.72,WNW,303,0.0,0.0,77,0.00,,,0.00,VWS V14.01,2013-03-13 02:20:00,
2013-03-12 22:26:00,62.1,55.1,17.72,WNW,303,0.0,0.0,78,0.00,,,0.00,VWS V14.01,2013-03-13 02:26:00,
2013-03-12 22:32:00,62.1,55.1,17.72,WNW,303,0.0,0.0,78,0.00,,,0.00,VWS V14.01,2013-03-13 02:32:00,
2013-03-12 22:37:00,61.9,55.0,17.72,WNW,303,0.0,0.0,78,0.00,,,0.00,VWS V14.01,2013-03-13 02:37:00,
2013-03-12 22:42:00,61.9,55.0,17.72,WNW,303,0.0,0.0,78,0.00,,,0.00,VWS V14.01,2013-03-13 02:42:00,
2013-03-12 22:47:00,61.7,54.8,17.72,WNW,303,0.0,0.0,78,0.00,,,0.00,VWS V14.01,2013-03-13 02:47:00,
2013-03-12 22:52:00,61.7,54.8,17.72,WNW,303,0.0,0.0,78,0.00,,,0.00,VWS V14.01,2013-03-13 02:52:00,
2013-03-12 22:57:00,61.5,55.0,17.72,WNW,303,0.0,0.0,79,0.00,,,0.00,VWS V14.01,2013-03-13 02:57:00,
2013-03-12 23:03:00,61.5,55.0,17.72,WNW,303,0.0,0.0,79,0.00,,,0.00,VWS V14.01,2013-03-13 03:03:00,
2013-03-12 23:08:00,61.3,54.8,17.72,WNW,303,0.0,0.0,79,0.00,,,0.00,VWS V14.01,2013-03-13 03:08:00,
2013-03-12 23:13:00,61.3,54.8,17.72,WNW,303,0.0,0.0,79,0.00,,,0.00,VWS V14.01,2013-03-13 03:13:00,
2013-03-12 23:18:00,61.2,54.6,17.72,WNW,303,0.0,0.0,79,0.00,,,0.00,VWS V14.01,2013-03-13 03:18:00,
2013-03-12 23:23:00,61.2,54.3,17.72,WNW,303,0.0,0.0,78,0.00,,,0.00,VWS V14.01,2013-03-13 03:23:00,
2013-03-12 23:29:00,61.0,54.1,17.72,WNW,303,0.0,0.0,78,0.00,,,0.00,VWS V14.01,2013-03-13 03:29:00,
2013-03-12 23:34:00,60.8,53.9,17.72,WNW,303,0.0,0.0,78,0.00,,,0.00,VWS V14.01,2013-03-13 03:34:00,
2013-03-12 23:39:00,60.6,53.7,17.72,WNW,303,0.0,0.0,78,0.00,,,0.00,VWS V14.01,2013-03-13 03:39:00,
2013-03-12 23:45:00,60.4,53.6,17.72,WNW,303,0.0,0.0,78,0.00,,,0.00,VWS V14.01,2013-03-13 03:45:00,
2013-03-12 23:51:00,60.3,53.4,17.72,NW,313,0.0,0.0,78,0.00,,,0.00,VWS V14.01,2013-03-13 03:51:00,
2013-03-12 23:56:00,60.1,53.2,17.72,NW,313,0.0,0.0,78,0.00,,,0.00,VWS V14.01,2013-03-13 03:56:00,